Time;durP1;ratioP1;P1;durP2;ratioP2;P2;SDS_P1;SDS_P2;PMS_P1;PMS_P2;Temp;Humidity;BMP_temperature;BMP_pressure;BME280_temperature;BME280_humidity;BME280_pressure;Samples;Min_cycle;Max_cycle;Signal;HPM_P1;HPM_P2
2023/03/07 00:05:20;;;;;;;1999.90;999.90;;;4.60;99.90;;;;;;6699891;88;20217;-77
2023/03/07 00:15:21;;;;;;;1999.90;999.90;;;4.60;99.90;;;;;;6701391;88;20700;-77
2023/03/07 00:25:21;;;;;;;1999.90;999.90;;;4.50;99.90;;;;;;6705969;88;20198;-78
2023/03/07 00:35:22;;;;;;;1999.90;999.90;;;4.50;99.90;;;;;;6704430;88;20507;-78
2023/03/07 00:45:22;;;;;;;1999.90;999.90;;;4.50;99.90;;;;;;6705422;88;20247;-79
2023/03/07 00:55:23;;;;;;;1999.90;999.90;;;4.50;99.90;;;;;;6703845;88;20245;-77
2023/03/07 01:05:24;;;;;;;1999.90;999.90;;;4.50;99.90;;;;;;6706958;88;20207;-77
2023/03/07 01:15:24;;;;;;;1999.90;999.90;;;4.60;99.90;;;;;;6705410;88;20950;-77
2023/03/07 01:25:25;;;;;;;1999.90;999.90;;;4.70;99.90;;;;;;6703389;88;20208;-77
2023/03/07 01:35:27;;;;;;;1999.90;999.90;;;4.70;99.90;;;;;;6703790;88;20577;-77
2023/03/07 01:45:33;;;;;;;1999.90;999.90;;;4.70;99.90;;;;;;6704469;88;20207;-76
2023/03/07 01:55:35;;;;;;;1999.90;999.90;;;4.80;99.90;;;;;;6706698;88;20205;-76
2023/03/07 02:05:40;;;;;;;1999.90;999.90;;;4.70;99.90;;;;;;6707550;88;20274;-76
2023/03/07 02:15:41;;;;;;;1999.90;999.90;;;4.80;99.90;;;;;;6706418;88;20655;-76
2023/03/07 02:25:50;;;;;;;1999.90;999.90;;;4.90;99.90;;;;;;6708307;88;20321;-76
2023/03/07 02:35:57;;;;;;;1999.90;999.90;;;4.90;99.90;;;;;;6705547;88;20201;-76
2023/03/07 02:45:58;;;;;;;1999.90;999.90;;;4.90;99.90;;;;;;6698630;88;20179;-76
2023/03/07 02:55:58;;;;;;;1999.90;999.90;;;5.00;99.90;;;;;;6700663;88;20310;-76
2023/03/07 03:05:59;;;;;;;1999.90;999.90;;;5.00;99.90;;;;;;6699310;88;20210;-76
2023/03/07 03:15:59;;;;;;;1999.90;999.90;;;5.10;99.90;;;;;;6704195;88;20206;-76
2023/03/07 03:26:04;;;;;;;1999.90;999.90;;;5.10;99.90;;;;;;6703840;88;20726;-76
2023/03/07 03:36:11;;;;;;;1999.90;999.90;;;5.10;99.90;;;;;;6698754;88;20627;-76
2023/03/07 03:46:12;;;;;;;1999.90;999.90;;;5.10;99.90;;;;;;6694453;88;20187;-76
2023/03/07 03:56:16;;;;;;;1999.90;999.90;;;5.00;99.90;;;;;;6701094;88;20317;-77
2023/03/07 04:06:19;;;;;;;1999.90;999.90;;;5.00;99.90;;;;;;6702854;88;20200;-76
2023/03/07 04:16:21;;;;;;;1999.90;999.90;;;5.00;99.90;;;;;;6702011;88;20248;-76
2023/03/07 04:26:22;;;;;;;1999.90;999.90;;;5.10;99.90;;;;;;6702007;88;20204;-76
2023/03/07 04:36:23;;;;;;;1999.90;999.90;;;5.00;99.90;;;;;;6706424;88;20178;-76
2023/03/07 04:46:24;;;;;;;1999.90;999.90;;;5.00;99.90;;;;;;6697862;88;20220;-76
2023/03/07 04:56:25;;;;;;;1999.90;999.90;;;5.00;99.90;;;;;;6715370;88;20178;-77
2023/03/07 05:06:26;;;;;;;1999.90;999.90;;;5.10;99.90;;;;;;6726214;88;20213;-77
2023/03/07 05:16:26;;;;;;;1999.90;999.90;;;5.10;99.90;;;;;;6705236;88;20210;-76
2023/03/07 05:26:27;;;;;;;1999.90;999.90;;;5.10;99.90;;;;;;6704233;88;20201;-77
2023/03/07 05:36:27;;;;;;;1999.90;999.90;;;5.20;99.90;;;;;;6705377;88;20253;-77
2023/03/07 05:46:28;;;;;;;1999.90;999.90;;;5.30;99.90;;;;;;6703911;88;20220;-77
2023/03/07 05:56:28;;;;;;;1999.90;999.90;;;5.30;99.90;;;;;;6701465;88;20173;-77
2023/03/07 06:06:29;;;;;;;1999.90;999.90;;;5.30;99.90;;;;;;6704154;88;20194;-77
2023/03/07 06:16:29;;;;;;;1999.90;999.90;;;5.20;99.90;;;;;;6702321;88;20230;-78
2023/03/07 06:26:30;;;;;;;1999.90;999.90;;;5.30;99.90;;;;;;6700382;88;20234;-76
2023/03/07 06:36:31;;;;;;;1999.90;999.90;;;5.30;99.90;;;;;;6704190;88;20247;-77
2023/03/07 06:46:31;;;;;;;1999.90;999.90;;;5.30;99.90;;;;;;6708837;88;20366;-79
2023/03/07 06:56:34;;;;;;;1999.90;999.90;;;5.40;99.90;;;;;;6705632;88;20245;-77
2023/03/07 07:06:34;;;;;;;1999.90;999.90;;;5.50;99.90;;;;;;6714506;88;20727;-77
2023/03/07 07:16:35;;;;;;;1999.90;999.90;;;5.60;99.90;;;;;;6699640;88;20186;-77
2023/03/07 07:26:36;;;;;;;1999.90;999.90;;;5.70;99.90;;;;;;6699623;88;20183;-77
2023/03/07 07:36:36;;;;;;;1999.90;999.90;;;5.70;99.90;;;;;;6703223;88;20533;-77
2023/03/07 07:46:37;;;;;;;1999.90;999.90;;;5.80;99.90;;;;;;6702935;88;20665;-77
2023/03/07 07:56:37;;;;;;;1999.90;999.90;;;5.90;99.90;;;;;;6705771;88;20195;-76
2023/03/07 08:06:38;;;;;;;1999.90;999.90;;;6.00;99.90;;;;;;6706849;88;20216;-76
2023/03/07 08:16:39;;;;;;;1999.90;999.90;;;6.00;99.90;;;;;;6705818;88;20225;-75
2023/03/07 08:26:39;;;;;;;1999.90;999.90;;;6.00;99.90;;;;;;6703587;88;20277;-76
2023/03/07 08:36:40;;;;;;;1999.90;999.90;;;6.00;99.90;;;;;;6706732;88;20252;-75
2023/03/07 08:46:40;;;;;;;1999.90;999.90;;;5.90;99.90;;;;;;6710298;78;20356;-76
2023/03/07 08:56:41;;;;;;;1999.90;999.90;;;6.10;99.90;;;;;;6638499;89;20626;-78
2023/03/07 09:06:41;;;;;;;1999.90;999.90;;;6.30;99.90;;;;;;6632203;88;20189;-78
2023/03/07 09:16:42;;;;;;;1999.90;999.90;;;6.40;99.90;;;;;;6621003;88;20758;-78
2023/03/07 09:26:42;;;;;;;1999.90;999.90;;;6.50;99.90;;;;;;6622289;89;20244;-77
2023/03/07 09:36:43;;;;;;;1999.90;999.90;;;6.40;99.90;;;;;;6623145;88;20197;-76
2023/03/07 09:47:09;;;;;;;1999.90;999.90;;;6.70;99.90;;;;;;6631730;88;20186;-76
2023/03/07 09:57:27;;;;;;;1999.90;999.90;;;7.00;99.90;;;;;;6645325;88;20199;-77
2023/03/07 10:07:28;;;;;;;1999.90;999.90;;;7.10;99.90;;;;;;6628876;88;20202;-76
2023/03/07 10:17:44;;;;;;;1999.90;999.90;;;7.00;99.90;;;;;;6626444;89;20193;-76
2023/03/07 10:27:47;;;;;;;1999.90;999.90;;;7.00;99.90;;;;;;6625259;89;20166;-78
2023/03/07 10:37:59;;;;;;;1999.90;999.90;;;7.20;99.90;;;;;;6625997;89;20213;-76
2023/03/07 10:48:08;;;;;;;1999.90;999.90;;;7.60;99.90;;;;;;6622988;88;20189;-76
2023/03/07 10:58:15;;;;;;;1999.90;999.90;;;7.50;99.90;;;;;;6626468;88;20210;-76
2023/03/07 11:08:34;;;;;;;1999.90;999.90;;;7.20;99.90;;;;;;6627365;88;20929;-77
2023/03/07 11:18:41;;;;;;;1999.90;999.90;;;7.50;99.90;;;;;;6625785;88;20181;-77
2023/03/07 11:28:42;;;;;;;1999.90;999.90;;;7.50;99.90;;;;;;6640273;88;20226;-77
2023/03/07 11:39:10;;;;;;;1999.90;999.90;;;7.50;99.90;;;;;;6628937;89;20834;-77
2023/03/07 11:49:28;;;;;;;1999.90;999.90;;;7.80;99.90;;;;;;6626347;88;20209;-77
2023/03/07 12:00:01;;;;;;;1999.90;999.90;;;7.90;99.90;;;;;;6627521;88;20272;-76
2023/03/07 12:10:28;;;;;;;1999.90;999.90;;;8.10;99.90;;;;;;6627155;88;20214;-77
2023/03/07 12:20:49;;;;;;;1999.90;999.90;;;8.10;99.90;;;;;;6622720;89;20193;-77
2023/03/07 12:31:09;;;;;;;1999.90;999.90;;;8.10;99.90;;;;;;6631157;88;20241;-77
2023/03/07 12:41:38;;;;;;;1999.90;999.90;;;8.40;99.90;;;;;;6629707;89;20241;-76
2023/03/07 12:51:44;;;;;;;1999.90;999.90;;;8.20;99.90;;;;;;6628644;88;20204;-76
2023/03/07 13:01:46;;;;;;;1999.90;999.90;;;8.00;99.90;;;;;;6634481;89;20217;-77
2023/03/07 13:12:08;;;;;;;1999.90;999.90;;;8.30;99.90;;;;;;6626684;89;20691;-77
2023/03/07 13:22:14;;;;;;;1999.90;999.90;;;8.50;99.90;;;;;;6628041;88;20217;-76
2023/03/07 13:32:34;;;;;;;;;;;8.10;99.90;;;;;;6625996;89;20206;-76
2023/03/07 13:42:45;;;;;;;1999.90;999.90;;;8.30;99.90;;;;;;6620764;88;20103;-76
2023/03/07 13:52:46;;;;;;;1999.90;999.90;;;8.30;99.90;;;;;;6624008;88;20315;-76
2023/03/07 14:02:47;;;;;;;1999.90;999.90;;;8.30;99.90;;;;;;6627191;88;20228;-76
2023/03/07 14:13:17;;;;;;;1999.90;999.90;;;8.20;99.90;;;;;;6638360;88;20190;-77
2023/03/07 14:23:38;;;;;;;1999.90;999.90;;;8.10;99.90;;;;;;6624726;88;20335;-76
2023/03/07 14:33:39;;;;;;;1999.90;999.90;;;8.00;99.90;;;;;;6627134;89;20282;-77
2023/03/07 14:44:01;;;;;;;1999.90;999.90;;;7.80;99.90;;;;;;6622171;89;20684;-76
2023/03/07 14:54:25;;;;;;;1999.90;999.90;;;7.20;99.90;;;;;;6635005;78;20703;-79
2023/03/07 15:04:31;;;;;;;1999.90;999.90;;;6.30;99.90;;;;;;6712378;88;21564;-79
2023/03/07 15:14:52;;;;;;;1999.90;999.90;;;5.70;99.90;;;;;;6694581;88;20209;-79
2023/03/07 15:24:52;;;;;;;1999.90;999.90;;;5.20;99.90;;;;;;6693792;88;20199;-79
2023/03/07 15:35:02;;;;;;;1999.90;999.90;;;4.60;99.90;;;;;;6693441;88;20322;-78
2023/03/07 15:45:03;;;;;;;1999.90;999.90;;;3.90;99.90;;;;;;6690395;88;20220;-78
2023/03/07 15:55:15;;;;;;;1999.90;999.90;;;3.30;99.90;;;;;;6686908;88;20760;-78
2023/03/07 16:05:18;;;;;;;1999.90;999.90;;;2.30;99.90;;;;;;6686099;88;20211;-77
2023/03/07 16:15:21;;;;;;;1999.90;999.90;;;2.10;99.90;;;;;;6687098;88;20256;-78
2023/03/07 16:25:23;;;;;;;1999.90;999.90;;;2.00;99.90;;;;;;6689026;88;20186;-77
2023/03/07 16:35:26;;;;;;;1999.90;999.90;;;1.90;99.90;;;;;;6690667;88;20301;-77
2023/03/07 16:45:29;;;;;;;1999.90;999.90;;;1.90;99.90;;;;;;6688850;88;20214;-78
2023/03/07 16:55:30;;;;;;;1999.90;999.90;;;1.90;99.90;;;;;;6688240;88;20601;-78
2023/03/07 17:05:31;;;;;;;1999.90;999.90;;;1.90;99.90;;;;;;6688213;88;20206;-78
2023/03/07 17:15:32;;;;;;;1999.90;999.90;;;1.90;99.90;;;;;;6687178;88;20337;-77
2023/03/07 17:25:32;;;;;;;1999.90;999.90;;;1.70;99.90;;;;;;6689028;88;20207;-78
2023/03/07 17:35:33;;;;;;;1999.90;999.90;;;1.70;99.90;;;;;;6689138;88;20360;-78
2023/03/07 17:45:33;;;;;;;1999.90;999.90;;;1.80;99.90;;;;;;6690472;88;20689;-77
2023/03/07 17:55:34;;;;;;;1999.90;999.90;;;2.00;99.90;;;;;;6686408;88;21172;-76
2023/03/07 18:05:35;;;;;;;1999.90;999.90;;;2.00;99.90;;;;;;6698700;88;20190;-76
2023/03/07 18:15:35;;;;;;;1999.90;999.90;;;1.90;99.90;;;;;;6708354;88;20648;-78
2023/03/07 18:25:36;;;;;;;1999.90;999.90;;;2.10;99.90;;;;;;6706337;88;20515;-76
2023/03/07 18:35:36;;;;;;;1999.90;999.90;;;2.10;99.90;;;;;;6706553;88;21025;-77
2023/03/07 18:45:41;;;;;;;1999.90;999.90;;;2.10;99.90;;;;;;6704734;88;20283;-76
2023/03/07 18:55:42;;;;;;;1999.90;999.90;;;2.10;99.90;;;;;;6695543;88;20636;-77
2023/03/07 19:05:44;;;;;;;1999.90;999.90;;;2.20;99.90;;;;;;6703069;88;20179;-76
2023/03/07 19:15:45;;;;;;;1999.90;999.90;;;2.30;99.90;;;;;;6712408;88;20553;-77
2023/03/07 19:25:45;;;;;;;1999.90;999.90;;;2.30;99.90;;;;;;6705459;88;20227;-77
2023/03/07 19:35:46;;;;;;;1999.90;999.90;;;2.30;99.90;;;;;;6708208;88;20842;-76
2023/03/07 19:45:47;;;;;;;1999.90;999.90;;;2.40;99.90;;;;;;6705393;88;20202;-77
2023/03/07 19:55:47;;;;;;;1999.90;999.90;;;2.30;99.90;;;;;;6724013;88;20194;-78
2023/03/07 20:05:48;;;;;;;1999.90;999.90;;;2.20;99.90;;;;;;6706782;88;20182;-77
2023/03/07 20:15:51;;;;;;;1999.90;999.90;;;2.00;99.90;;;;;;6706810;88;20240;-78
2023/03/07 20:25:51;;;;;;;1999.90;999.90;;;1.80;99.90;;;;;;6704017;88;20193;-78
2023/03/07 20:36:04;;;;;;;1999.90;999.90;;;1.70;99.90;;;;;;6708657;88;20249;-76
2023/03/07 20:46:08;;;;;;;1999.90;999.90;;;1.50;99.90;;;;;;6697615;88;20161;-75
2023/03/07 20:56:08;;;;;;;1999.90;999.90;;;1.40;99.90;;;;;;6718928;78;20205;-77
2023/03/07 21:06:09;;;;;;;1999.90;999.90;;;1.20;99.90;;;;;;6706063;88;20233;-77
2023/03/07 21:16:15;;;;;;;1999.90;999.90;;;1.10;99.90;;;;;;6699410;88;20646;-77
2023/03/07 21:26:19;;;;;;;1999.90;999.90;;;1.10;99.90;;;;;;6699134;88;20333;-77
2023/03/07 21:36:21;;;;;;;1999.90;999.90;;;1.10;99.90;;;;;;6699991;88;20323;-77
2023/03/07 21:46:22;;;;;;;1999.90;999.90;;;1.10;99.90;;;;;;6704899;88;20191;-77
2023/03/07 21:56:24;;;;;;;1999.90;999.90;;;1.10;99.90;;;;;;6696137;88;20212;-77
2023/03/07 22:06:25;;;;;;;1999.90;999.90;;;1.30;99.90;;;;;;6695632;88;20203;-76
2023/03/07 22:16:26;;;;;;;1999.90;999.90;;;1.30;99.90;;;;;;6698820;88;20203;-77
2023/03/07 22:26:28;;;;;;;1999.90;999.90;;;1.40;99.90;;;;;;6704185;88;20174;-76
2023/03/07 22:36:29;;;;;;;1999.90;999.90;;;1.50;99.90;;;;;;6696918;88;20191;-77
2023/03/07 22:46:29;;;;;;;1999.90;999.90;;;1.50;99.90;;;;;;6699462;88;20226;-76
2023/03/07 22:56:30;;;;;;;1999.90;999.90;;;1.60;99.90;;;;;;6698277;88;20839;-77
2023/03/07 23:06:32;;;;;;;1999.90;999.90;;;1.50;99.90;;;;;;6703389;88;20202;-77
2023/03/07 23:16:35;;;;;;;1999.90;999.90;;;1.40;99.90;;;;;;6699686;88;20199;-77
2023/03/07 23:26:37;;;;;;;1999.90;999.90;;;1.40;99.90;;;;;;6698514;88;20320;-77
2023/03/07 23:36:38;;;;;;;1999.90;999.90;;;1.30;99.90;;;;;;6704195;88;20223;-77
2023/03/07 23:46:38;;;;;;;1999.90;999.90;;;1.40;99.90;;;;;;6702867;88;20198;-76
2023/03/07 23:56:39;;;;;;;1999.90;999.90;;;1.20;99.90;;;;;;6700923;88;20182;-76
